Latest Weather Observations for Frankston

IDV60901

Issued at 6:51 pm EDT Monday 8 February 2016 (issued every 10 minutes, with the page automatically refreshed every 10 minutes)

About weather observations | Map of Melbourne area stations | Latest observations for Melbourne area | Other Formats
Station Details ID: 086371 Name: FRANKSTON AWS Lat: -38.15 Lon: 145.12 Height: 6.0 m
Data from the previous 72 hours. | See also: Recent months at Frankston
Date/Time
EDT
Tmp

°C
App
Tmp
°C
Dew
Point
°C
Rel
Hum
%
Delta-T

°C
Wind Press
QNH
hPa
Press
MSL
hPa
Rain
since
9 am
mm
Dir
 
Spd
km/h
Gust
km/h
Spd
kts
Gust
kts
08/06:30pm 21.8 20.3 11.8 53 5.6 SSE 11 24 6 13 - - -
08/06:00pm 21.8 20.0 12.1 54 5.5 SSE 13 22 7 12 - - -
08/05:30pm 22.4 22.0 12.9 55 5.4 SW 7 19 4 10 - - -
08/05:00pm 21.2 18.3 13.9 63 4.2 WSW 22 35 12 19 - - -
08/04:30pm 22.0 20.8 12.8 56 5.2 SSW 11 22 6 12 - - -
08/04:00pm 22.2 20.8 13.3 57 5.1 SSW 13 24 7 13 - - -
08/03:30pm 19.7 14.9 14.5 72 3.0 WSW 33 39 18 21 - - -
08/03:00pm 19.8 14.9 14.4 71 3.1 WSW 33 41 18 22 - - -
08/02:30pm 19.7 14.8 14.3 71 3.1 WSW 33 41 18 22 - - -
08/02:00pm 19.7 15.2 13.9 69 3.3 WSW 30 35 16 19 - - -
08/01:30pm 19.8 15.9 14.4 71 3.1 WSW 28 32 15 17 - - -
08/01:00pm 19.7 15.8 13.2 66 3.7 WSW 26 32 14 17 - - -
08/12:30pm 19.9 17.0 14.0 69 3.4 WSW 22 26 12 14 - - -
08/12:00pm 19.7 17.0 13.4 67 3.6 WSW 20 24 11 13 - - -
08/11:30am 19.7 17.1 13.2 66 3.7 WSW 19 20 10 11 - - -
08/11:00am 19.6 17.4 13.3 67 3.6 W 17 22 9 12 - - -
08/10:30am 19.4 17.2 13.3 68 3.5 WSW 17 20 9 11 - - -
08/10:00am 19.4 17.6 13.3 68 3.5 WSW 15 19 8 10 - - -
08/09:30am 19.3 18.3 13.3 68 3.4 SW 11 15 6 8 - - -
08/09:00am 19.5 18.7 13.9 70 3.2 SW 11 19 6 10 - - -
08/08:30am 19.0 19.0 14.1 73 2.8 SSW 7 17 4 9 - - -
08/08:00am 18.5 18.7 14.2 76 2.5 SSW 6 9 3 5 - - -
08/07:30am 18.3 19.0 14.4 78 2.2 S 4 6 2 3 - - -
08/07:00am 18.1 18.4 14.4 79 2.1 S 6 9 3 5 - - -
08/06:30am 18.1 18.4 15.0 82 1.8 S 7 11 4 6 - - -
08/06:00am 17.7 19.0 15.1 85 1.5 SSE 2 4 1 2 - - -
08/05:30am 17.4 17.9 15.0 86 1.4 SSE 6 7 3 4 - - -
08/05:00am 17.6 18.2 15.4 87 1.3 S 6 7 3 4 - - -
08/04:30am 17.2 18.1 15.0 87 1.3 SE 4 7 2 4 - - -
08/04:00am 17.1 18.3 14.9 87 1.3 SE 2 6 1 3 - - -
08/03:30am 17.6 18.9 15.2 86 1.4 E 2 2 1 1 - - -
08/03:00am 17.8 18.8 15.4 86 1.4 ESE 4 4 2 2 - - -
08/02:30am 17.8 19.2 15.4 86 1.4 SE 2 4 1 2 - - -
08/02:00am 17.9 19.0 15.5 86 1.4 SSE 4 4 2 2 - - -
08/01:30am 18.3 20.3 15.9 86 1.4 CALM 0 2 0 1 - - -
08/01:00am 18.5 20.1 15.9 85 1.5 SSE 2 6 1 3 - - -
08/12:30am 18.6 19.5 16.0 85 1.5 SSW 6 11 3 6 - - -
08/12:00am 18.9 19.3 16.3 85 1.6 SW 9 11 5 6 - - -
 
Date/Time
EDT
Tmp

°C
App
Tmp
°C
Dew
Point
°C
Rel
Hum
%
Delta-T

°C
Wind Press
QNH
hPa
Press
MSL
hPa
Rain
since
9 am
mm
Dir
 
Spd
km/h
Gust
km/h
Spd
kts
Gust
kts
07/11:30pm 19.3 19.7 16.3 83 1.8 SW 9 13 5 7 - - -
07/11:00pm 19.4 20.7 16.1 81 2.0 SSW 4 6 2 3 - - -
07/10:30pm 19.5 21.5 16.0 80 2.1 CALM 0 0 0 0 - - -
07/10:00pm 19.8 20.6 15.9 78 2.3 SSE 6 9 3 5 - - -
07/09:30pm 20.5 21.9 15.5 73 3.0 SSE 2 7 1 4 - - -
07/09:00pm 21.4 21.6 14.8 66 3.9 SSE 7 9 4 5 - - -
07/08:30pm 22.9 22.4 12.5 52 5.9 SSW 7 13 4 7 - - -
07/08:00pm 24.2 22.6 10.1 41 7.8 S 9 17 5 9 - - -
07/07:30pm 24.9 22.7 9.2 37 8.5 SSE 11 20 6 11 - - -
07/07:00pm 25.9 23.1 8.4 33 9.4 S 13 24 7 13 - - -
07/06:30pm 26.6 23.5 9.0 33 9.6 SSW 15 24 8 13 - - -
07/06:00pm 27.4 25.3 11.0 36 9.3 S 13 24 7 13 - - -
07/05:30pm 28.2 26.6 12.9 38 9.0 SSE 13 22 7 12 - - -
07/05:00pm 28.8 26.9 13.1 38 9.3 S 15 24 8 13 - - -
07/04:30pm 24.3 23.2 17.8 67 4.1 WSW 20 28 11 15 - - -
07/04:00pm 23.9 22.8 17.2 66 4.1 WSW 19 22 10 12 - - -
07/03:30pm 23.4 21.0 17.4 69 3.7 WSW 26 28 14 15 - - -
07/03:00pm 23.4 22.2 18.5 74 3.1 WSW 22 24 12 13 - - -
07/02:30pm 22.1 20.5 19.1 83 1.9 WSW 26 30 14 16 - - -
07/02:00pm 21.8 19.7 19.0 84 1.8 WSW 28 30 15 16 - - -
07/01:30pm 21.5 20.5 18.9 85 1.6 WSW 22 24 12 13 - - -
07/01:00pm 21.6 22.7 18.8 84 1.8 W 11 13 6 7 - - -
07/12:30pm 21.1 21.0 18.7 86 1.5 WSW 17 20 9 11 - - -
07/12:00pm 20.9 20.5 19.0 89 1.2 WSW 19 20 10 11 - - -
07/11:30am 20.8 20.9 19.1 90 1.1 WSW 17 19 9 10 - - -
07/11:00am 21.1 21.6 19.2 89 1.2 WSW 15 15 8 8 - - -
07/10:30am 21.4 23.1 19.3 88 1.3 W 9 11 5 6 - - -
07/10:00am 21.4 23.1 19.3 88 1.3 W 9 11 5 6 - - -
07/09:30am 21.4 22.5 18.0 81 2.1 NW 9 11 5 6 - - -
07/09:00am 21.3 23.3 16.0 72 3.2 CALM 0 0 0 0 - - -
07/08:30am 21.2 23.1 15.7 71 3.3 CALM 0 2 0 1 - - -
07/08:00am 20.8 22.1 15.1 70 3.4 N 2 4 1 2 - - -
07/07:30am 20.5 21.9 15.5 73 3.0 NE 2 6 1 3 - - -
07/07:00am 19.8 20.7 15.0 74 2.8 E 4 6 2 3 - - -
07/06:30am 19.3 20.1 14.8 75 2.6 ESE 4 6 2 3 - - -
07/06:00am 19.7 20.3 15.4 76 2.5 E 6 7 3 4 - - -
07/05:30am 19.3 20.2 15.2 77 2.4 ESE 4 6 2 3 - - -
07/05:00am 18.9 19.4 15.0 78 2.3 ESE 6 7 3 4 - - -
07/04:30am 18.6 18.9 14.9 79 2.2 SE 7 9 4 5 - - -
07/04:00am 18.9 19.0 15.4 80 2.1 SE 9 13 5 7 - - -
07/03:30am 18.7 18.4 15.4 81 1.9 ESE 11 15 6 8 - - -
07/03:00am 19.0 18.3 15.3 79 2.2 ESE 13 19 7 10 - - -
07/02:30am 19.4 18.7 15.3 77 2.4 ESE 13 19 7 10 - - -
07/02:00am 19.7 18.9 15.1 75 2.7 ESE 13 19 7 10 - - -
07/01:30am 20.1 19.7 15.1 73 2.9 ESE 11 20 6 11 - - -
07/01:00am 20.7 20.3 15.3 71 3.2 ESE 11 17 6 9 - - -
07/12:30am 21.1 20.7 15.2 69 3.5 ESE 11 20 6 11 - - -
07/12:00am 21.6 21.7 15.4 68 3.7 ESE 9 19 5 10 - - -
 
Date/Time
EDT
Tmp

°C
App
Tmp
°C
Dew
Point
°C
Rel
Hum
%
Delta-T

°C
Wind Press
QNH
hPa
Press
MSL
hPa
Rain
since
9 am
mm
Dir
 
Spd
km/h
Gust
km/h
Spd
kts
Gust
kts
06/11:30pm 22.3 22.4 15.4 65 4.1 ESE 9 19 5 10 - - -
06/11:00pm 22.9 22.1 15.2 62 4.6 ESE 13 22 7 12 - - -
06/10:30pm 23.6 22.7 14.9 58 5.2 E 13 24 7 13 - - -
06/10:00pm 24.4 23.6 15.1 56 5.6 ESE 13 20 7 11 - - -
06/09:30pm 25.4 23.7 14.8 52 6.3 E 17 26 9 14 - - -
06/09:00pm 26.7 25.1 15.1 49 7.0 E 17 30 9 16 - - -
06/08:30pm 27.6 28.3 16.2 49 7.0 SE 7 15 4 8 - - -
06/08:00pm 28.7 28.5 15.6 45 8.0 SE 11 20 6 11 - - -
06/07:30pm 29.4 28.2 14.0 39 9.3 ESE 13 22 7 12 - - -
06/07:00pm 30.1 29.1 13.4 36 10.0 SE 11 19 6 10 - - -
06/06:30pm 30.4 29.5 13.7 36 10.0 SE 11 20 6 11 - - -
06/06:00pm 30.6 29.1 13.0 34 10.5 SE 13 26 7 14 - - -
06/05:30pm 28.0 27.9 13.9 42 8.4 WSW 7 7 4 4 - - -
06/05:00pm 28.0 27.4 12.4 38 9.1 WSW 7 9 4 5 - - -
06/04:30pm 26.6 27.7 17.1 56 5.9 WNW 7 11 4 6 - - -
06/04:00pm 26.5 26.4 16.1 52 6.4 W 11 13 6 7 - - -
06/03:30pm 26.7 26.0 13.1 43 8.0 W 9 13 5 7 - - -
06/03:00pm 26.5 26.2 13.3 44 7.7 W 7 11 4 6 - - -
06/02:30pm 25.0 26.6 18.2 66 4.3 W 7 9 4 5 - - -
06/02:00pm 25.9 25.0 12.7 44 7.7 WSW 9 9 5 5 - - -
06/01:30pm 24.8 24.8 14.3 52 6.2 WSW 7 7 4 4 - - -
06/01:00pm 24.6 24.9 14.4 53 6.0 WSW 6 6 3 3 - - -
06/12:30pm 24.2 25.1 14.0 53 6.0 W 2 4 1 2 - - -
06/12:00pm 23.9 24.8 14.0 54 5.8 WSW 2 4 1 2 - - -
06/11:30am 23.6 24.3 14.6 57 5.3 NNW 4 6 2 3 - - -
06/11:00am 23.0 23.2 14.6 59 5.0 N 7 9 4 5 - - -
06/10:30am 22.2 23.3 15.5 66 4.0 NNW 4 9 2 5 - - -
06/10:00am 21.1 21.3 14.7 67 3.8 N 7 9 4 5 - - -
06/09:30am 20.6 21.4 14.9 70 3.3 N 4 7 2 4 - - -
06/09:00am 19.4 20.1 14.6 74 2.8 N 4 6 2 3 - - -
06/08:30am 18.8 19.3 14.1 74 2.7 NNE 4 6 2 3 - - -
06/08:00am 18.1 18.2 13.8 76 2.4 ENE 6 7 3 4 - - -
06/07:30am 17.3 17.1 13.6 79 2.1 E 7 11 4 6 - - -
06/07:00am 16.6 16.4 13.1 80 2.0 E 6 9 3 5 - - -
06/06:30am 16.6 16.2 13.1 80 2.0 E 7 11 4 6 - - -
06/06:00am 16.9 16.1 13.0 78 2.2 E 9 15 5 8 - - -
06/05:30am 17.2 15.7 13.1 77 2.3 E 13 20 7 11 - - -
06/05:00am 17.3 16.2 13.2 77 2.3 E 11 19 6 10 - - -
06/04:30am 17.4 16.4 13.3 77 2.3 ESE 11 17 6 9 - - -
06/04:00am 17.5 16.1 13.4 77 2.3 E 13 22 7 12 - - -
06/03:30am 17.6 16.5 13.1 75 2.5 ESE 11 20 6 11 - - -
06/03:00am 17.9 16.4 13.2 74 2.6 ESE 13 20 7 11 - - -
06/02:30am 18.1 16.6 13.2 73 2.8 ESE 13 26 7 14 - - -
06/02:00am 18.3 16.9 13.4 73 2.8 ESE 13 24 7 13 - - -
06/01:30am 18.4 16.6 13.3 72 2.9 ESE 15 24 8 13 - - -
06/01:00am 18.5 17.1 13.4 72 2.9 ESE 13 28 7 15 - - -
06/12:30am 18.6 16.3 13.0 70 3.2 ESE 17 32 9 17 - - -
06/12:00am 18.9 16.1 13.1 69 3.3 ESE 20 33 11 18 - - -
 
Date/Time
EDT
Tmp

°C
App
Tmp
°C
Dew
Point
°C
Rel
Hum
%
Delta-T

°C
Wind Press
QNH
hPa
Press
MSL
hPa
Rain
since
9 am
mm
Dir
 
Spd
km/h
Gust
km/h
Spd
kts
Gust
kts
05/11:30pm 19.2 16.5 12.9 67 3.5 ESE 19 39 10 21 - - -
05/11:00pm 19.5 16.1 12.5 64 3.9 ESE 22 39 12 21 - - -
05/10:30pm 19.9 17.4 12.2 61 4.3 ESE 17 35 9 19 - - -
05/10:00pm 20.4 17.5 12.4 60 4.5 ESE 19 35 10 19 - - -
05/09:30pm 21.0 18.2 12.7 59 4.7 ESE 19 39 10 21 - - -
05/09:00pm 21.8 19.4 12.6 56 5.2 ESE 17 33 9 18 - - -
05/08:30pm 22.6 20.1 12.3 52 5.8 ESE 17 26 9 14 - - -
05/08:00pm 23.6 21.0 12.0 48 6.6 E 17 35 9 19 - - -
05/07:30pm 24.6 21.6 11.9 45 7.2 ESE 19 33 10 18 - - -
05/07:00pm 25.3 22.3 11.8 43 7.7 ESE 19 33 10 18 - - -

Latest Capital City Observations: Canberra | Sydney | Melbourne | Brisbane | Adelaide | Perth | Hobart | Darwin

Other Formats:

Comma delimited format used in spreadsheet applications
http://www.bom.gov.au/fwo/IDV60901/IDV60901.94871.axf

JavaScript Object Notation format (JSON) in row-major order
http://www.bom.gov.au/fwo/IDV60901/IDV60901.94871.json